Airfield :
LOGIN :

Register | Disclaimer

   EN    FR    IT 

 










Legend :    VFR   Marginal VFR   IFR   Intensive IFR   Very Intensive IFR
Visi :
Ceiling :
>= 8 km
>= 3000ft
5 to 8 km
1000 to 3000 ft
1500m to 5 km
500 to 1000 ft
800 to 1500m
200 to 500 ft
< 800m
< 200 ft
Symbols :   Thunderstorms  Fog  Heavy snow  Heavy precipitations  Wind > 20 kt
SIGMETs :     Misc.  Thunderstorms  Icing  Turbulence  Mountain Waves  Volcanic Ashes






- Airport Elevation : 11 ft


LPAR - Alverca Air Base

CURRENT METAR :
  • 251600Z 05007KT 9999 FEW020 BKN030 15/11 Q1025

EXPIRED METARs :
  • 251500Z 07006KT 020V120 9999 SCT030 16/11 Q1025
  • 251400Z 07005KT 020V110 9999 BKN030 15/11 Q1025

TAF AMD TAF LPAR
Valid from the 25 at 15:00 until the 26 at 00:00 UTC


251500Z 2515/2524 03010KT 9999 SCT010 BKN025
PROB40
TEMPO 2515/2518 04012G25KT 6000 -RA BKN020



MET'MAP, your aeronautical weather chart ! - Copyright ORBIFLY December 2007 - Disclaimer

ORBIFLY MET'MAP TEAM :

Programming & Development : Alexandra Zaïnal
Concept & original design : Baudouin d'Aumeries
Assistance for programming : Marc-Olivier Méhu
Technical & hardware support : Manuel Goepfert

Contact : metmap@orbifly.com




SOURCES & CREDITS :

   NOAA